sensor_id;sensor_type;location;lat;lon;timestamp;temperature;humidity
49579;DHT22;35483;50.828;3.228;2023-04-24T00:01:00;11.10;99.90
49579;DHT22;35483;50.828;3.228;2023-04-24T00:03:27;11.10;99.90
49579;DHT22;35483;50.828;3.228;2023-04-24T00:05:54;11.10;99.90
49579;DHT22;35483;50.828;3.228;2023-04-24T00:08:20;11.00;99.90
49579;DHT22;35483;50.828;3.228;2023-04-24T00:10:48;11.00;99.90
49579;DHT22;35483;50.828;3.228;2023-04-24T00:13:13;11.00;99.90
49579;DHT22;35483;50.828;3.228;2023-04-24T00:15:39;10.90;99.90
49579;DHT22;35483;50.828;3.228;2023-04-24T00:18:05;10.90;99.90
49579;DHT22;35483;50.828;3.228;2023-04-24T00:20:30;10.90;99.90
49579;DHT22;35483;50.828;3.228;2023-04-24T00:22:58;10.90;99.90
49579;DHT22;35483;50.828;3.228;2023-04-24T00:25:23;10.90;99.90
49579;DHT22;35483;50.828;3.228;2023-04-24T00:27:49;10.90;99.90
49579;DHT22;35483;50.828;3.228;2023-04-24T00:30:15;10.90;99.90
49579;DHT22;35483;50.828;3.228;2023-04-24T00:32:42;10.90;99.90
49579;DHT22;35483;50.828;3.228;2023-04-24T00:35:08;10.90;99.90
49579;DHT22;35483;50.828;3.228;2023-04-24T00:37:34;10.90;99.90
49579;DHT22;35483;50.828;3.228;2023-04-24T00:40:00;10.90;99.90
49579;DHT22;35483;50.828;3.228;2023-04-24T00:42:26;10.90;99.90
49579;DHT22;35483;50.828;3.228;2023-04-24T00:44:52;10.90;99.90
49579;DHT22;35483;50.828;3.228;2023-04-24T00:47:19;10.90;99.90
49579;DHT22;35483;50.828;3.228;2023-04-24T00:49:44;10.90;99.90
49579;DHT22;35483;50.828;3.228;2023-04-24T00:52:10;10.90;99.90
49579;DHT22;35483;50.828;3.228;2023-04-24T00:54:37;10.90;99.90
49579;DHT22;35483;50.828;3.228;2023-04-24T00:57:04;10.80;99.90
49579;DHT22;35483;50.828;3.228;2023-04-24T00:59:30;10.80;99.90
49579;DHT22;35483;50.828;3.228;2023-04-24T01:01:57;10.80;99.90
49579;DHT22;35483;50.828;3.228;2023-04-24T01:04:24;10.80;99.90
49579;DHT22;35483;50.828;3.228;2023-04-24T01:06:52;10.80;99.90
49579;DHT22;35483;50.828;3.228;2023-04-24T01:09:19;10.80;99.90
49579;DHT22;35483;50.828;3.228;2023-04-24T01:11:47;10.80;99.90
49579;DHT22;35483;50.828;3.228;2023-04-24T01:14:12;10.80;99.90
49579;DHT22;35483;50.828;3.228;2023-04-24T01:16:38;10.80;99.90
49579;DHT22;35483;50.828;3.228;2023-04-24T01:19:06;10.70;99.90
49579;DHT22;35483;50.828;3.228;2023-04-24T01:21:34;10.70;99.90
49579;DHT22;35483;50.828;3.228;2023-04-24T01:24:02;10.70;99.90
49579;DHT22;35483;50.828;3.228;2023-04-24T01:26:28;10.70;99.90
49579;DHT22;35483;50.828;3.228;2023-04-24T01:28:54;10.60;99.90
49579;DHT22;35483;50.828;3.228;2023-04-24T01:31:20;10.60;99.90
49579;DHT22;35483;50.828;3.228;2023-04-24T01:33:46;10.60;99.90
49579;DHT22;35483;50.828;3.228;2023-04-24T01:36:13;10.60;99.90
49579;DHT22;35483;50.828;3.228;2023-04-24T01:38:39;10.60;99.90
49579;DHT22;35483;50.828;3.228;2023-04-24T01:41:05;10.60;99.90
49579;DHT22;35483;50.828;3.228;2023-04-24T01:43:31;10.60;99.90
49579;DHT22;35483;50.828;3.228;2023-04-24T01:45:57;10.60;99.90
49579;DHT22;35483;50.828;3.228;2023-04-24T01:48:23;10.60;99.90
49579;DHT22;35483;50.828;3.228;2023-04-24T01:50:49;10.60;99.90
49579;DHT22;35483;50.828;3.228;2023-04-24T01:53:15;10.60;99.90
49579;DHT22;35483;50.828;3.228;2023-04-24T01:55:41;10.60;99.90
49579;DHT22;35483;50.828;3.228;2023-04-24T01:58:07;10.60;99.90
49579;DHT22;35483;50.828;3.228;2023-04-24T02:00:33;10.60;99.90
49579;DHT22;35483;50.828;3.228;2023-04-24T02:02:58;10.60;99.90
49579;DHT22;35483;50.828;3.228;2023-04-24T02:05:24;10.60;99.90
49579;DHT22;35483;50.828;3.228;2023-04-24T02:07:50;10.60;99.90
49579;DHT22;35483;50.828;3.228;2023-04-24T02:10:15;10.60;99.90
49579;DHT22;35483;50.828;3.228;2023-04-24T02:12:41;10.60;99.90
49579;DHT22;35483;50.828;3.228;2023-04-24T02:15:07;10.60;99.90
49579;DHT22;35483;50.828;3.228;2023-04-24T02:17:33;10.60;99.90
49579;DHT22;35483;50.828;3.228;2023-04-24T02:19:59;10.60;99.90
49579;DHT22;35483;50.828;3.228;2023-04-24T02:22:24;10.60;99.90
49579;DHT22;35483;50.828;3.228;2023-04-24T02:24:50;10.60;99.90
49579;DHT22;35483;50.828;3.228;2023-04-24T02:27:16;10.60;99.90
49579;DHT22;35483;50.828;3.228;2023-04-24T02:29:42;10.70;99.90
49579;DHT22;35483;50.828;3.228;2023-04-24T02:32:07;10.70;99.90
49579;DHT22;35483;50.828;3.228;2023-04-24T02:34:37;10.70;99.90
49579;DHT22;35483;50.828;3.228;2023-04-24T02:37:03;10.70;99.90
49579;DHT22;35483;50.828;3.228;2023-04-24T02:39:29;10.70;99.90
49579;DHT22;35483;50.828;3.228;2023-04-24T02:41:55;10.70;99.90
49579;DHT22;35483;50.828;3.228;2023-04-24T02:44:21;10.70;99.90
49579;DHT22;35483;50.828;3.228;2023-04-24T02:46:48;10.60;99.90
49579;DHT22;35483;50.828;3.228;2023-04-24T02:49:13;10.60;99.90
49579;DHT22;35483;50.828;3.228;2023-04-24T02:51:39;10.70;99.90
49579;DHT22;35483;50.828;3.228;2023-04-24T02:54:08;10.70;99.90
49579;DHT22;35483;50.828;3.228;2023-04-24T02:56:34;10.70;99.90
49579;DHT22;35483;50.828;3.228;2023-04-24T02:59:00;10.70;99.90
49579;DHT22;35483;50.828;3.228;2023-04-24T03:01:26;10.60;99.90
49579;DHT22;35483;50.828;3.228;2023-04-24T03:03:51;10.60;99.90
49579;DHT22;35483;50.828;3.228;2023-04-24T03:06:17;10.60;99.90
49579;DHT22;35483;50.828;3.228;2023-04-24T03:08:43;10.60;99.90
49579;DHT22;35483;50.828;3.228;2023-04-24T03:11:09;10.60;99.90
49579;DHT22;35483;50.828;3.228;2023-04-24T03:13:34;10.60;99.90
49579;DHT22;35483;50.828;3.228;2023-04-24T03:16:00;10.60;99.90
49579;DHT22;35483;50.828;3.228;2023-04-24T03:18:26;10.50;99.90
49579;DHT22;35483;50.828;3.228;2023-04-24T03:20:52;10.40;99.90
49579;DHT22;35483;50.828;3.228;2023-04-24T03:23:18;10.30;99.90
49579;DHT22;35483;50.828;3.228;2023-04-24T03:25:43;10.30;99.90
49579;DHT22;35483;50.828;3.228;2023-04-24T03:28:09;10.30;99.90
49579;DHT22;35483;50.828;3.228;2023-04-24T03:30:35;10.30;99.90
49579;DHT22;35483;50.828;3.228;2023-04-24T03:33:00;10.30;99.90
49579;DHT22;35483;50.828;3.228;2023-04-24T03:35:26;10.20;99.90
49579;DHT22;35483;50.828;3.228;2023-04-24T03:37:53;10.20;99.90
49579;DHT22;35483;50.828;3.228;2023-04-24T03:40:19;10.20;99.90
49579;DHT22;35483;50.828;3.228;2023-04-24T03:42:45;10.20;99.90
49579;DHT22;35483;50.828;3.228;2023-04-24T03:45:10;10.30;99.90
49579;DHT22;35483;50.828;3.228;2023-04-24T03:47:36;10.20;99.90
49579;DHT22;35483;50.828;3.228;2023-04-24T03:50:02;10.30;99.90
49579;DHT22;35483;50.828;3.228;2023-04-24T03:52:28;10.30;99.90
49579;DHT22;35483;50.828;3.228;2023-04-24T03:54:54;10.30;99.90
49579;DHT22;35483;50.828;3.228;2023-04-24T03:57:20;10.30;99.90
49579;DHT22;35483;50.828;3.228;2023-04-24T03:59:46;10.30;99.90
49579;DHT22;35483;50.828;3.228;2023-04-24T04:02:12;10.30;99.90
49579;DHT22;35483;50.828;3.228;2023-04-24T04:04:38;10.30;99.90
49579;DHT22;35483;50.828;3.228;2023-04-24T04:07:03;10.30;99.90
49579;DHT22;35483;50.828;3.228;2023-04-24T04:09:30;10.20;99.90
49579;DHT22;35483;50.828;3.228;2023-04-24T04:11:56;10.20;99.90
49579;DHT22;35483;50.828;3.228;2023-04-24T04:14:22;10.20;99.90
49579;DHT22;35483;50.828;3.228;2023-04-24T04:16:48;10.20;99.90
49579;DHT22;35483;50.828;3.228;2023-04-24T04:19:14;10.30;99.90
49579;DHT22;35483;50.828;3.228;2023-04-24T04:21:40;10.30;99.90
49579;DHT22;35483;50.828;3.228;2023-04-24T04:24:06;10.30;99.90
49579;DHT22;35483;50.828;3.228;2023-04-24T04:26:32;10.30;99.90
49579;DHT22;35483;50.828;3.228;2023-04-24T04:28:59;10.30;99.90
49579;DHT22;35483;50.828;3.228;2023-04-24T04:31:26;10.30;99.90
49579;DHT22;35483;50.828;3.228;2023-04-24T04:33:51;10.30;99.90
49579;DHT22;35483;50.828;3.228;2023-04-24T04:36:17;10.40;99.90
49579;DHT22;35483;50.828;3.228;2023-04-24T04:38:43;10.30;99.90
49579;DHT22;35483;50.828;3.228;2023-04-24T04:41:10;10.30;99.90
49579;DHT22;35483;50.828;3.228;2023-04-24T04:43:36;10.20;99.90
49579;DHT22;35483;50.828;3.228;2023-04-24T04:46:03;10.20;99.90
49579;DHT22;35483;50.828;3.228;2023-04-24T04:48:29;10.30;99.90
49579;DHT22;35483;50.828;3.228;2023-04-24T04:50:57;10.30;99.90
49579;DHT22;35483;50.828;3.228;2023-04-24T04:53:23;10.30;99.90
49579;DHT22;35483;50.828;3.228;2023-04-24T04:55:49;10.30;99.90
49579;DHT22;35483;50.828;3.228;2023-04-24T04:58:15;10.30;99.90
49579;DHT22;35483;50.828;3.228;2023-04-24T05:00:41;10.30;99.90
49579;DHT22;35483;50.828;3.228;2023-04-24T05:03:06;10.30;99.90
49579;DHT22;35483;50.828;3.228;2023-04-24T05:05:32;10.30;99.90
49579;DHT22;35483;50.828;3.228;2023-04-24T05:07:58;10.30;99.90
49579;DHT22;35483;50.828;3.228;2023-04-24T05:10:24;10.30;99.90
49579;DHT22;35483;50.828;3.228;2023-04-24T05:12:50;10.30;99.90
49579;DHT22;35483;50.828;3.228;2023-04-24T05:15:15;10.30;99.90
49579;DHT22;35483;50.828;3.228;2023-04-24T05:17:41;10.30;99.90
49579;DHT22;35483;50.828;3.228;2023-04-24T05:20:07;10.30;99.90
49579;DHT22;35483;50.828;3.228;2023-04-24T05:22:33;10.40;99.90
49579;DHT22;35483;50.828;3.228;2023-04-24T05:24:59;10.40;99.90
49579;DHT22;35483;50.828;3.228;2023-04-24T05:27:25;10.40;99.90
49579;DHT22;35483;50.828;3.228;2023-04-24T05:29:51;10.40;99.90
49579;DHT22;35483;50.828;3.228;2023-04-24T05:32:17;10.40;99.90
49579;DHT22;35483;50.828;3.228;2023-04-24T05:34:43;10.40;99.90
49579;DHT22;35483;50.828;3.228;2023-04-24T05:37:09;10.40;99.90
49579;DHT22;35483;50.828;3.228;2023-04-24T05:39:36;10.40;99.90
49579;DHT22;35483;50.828;3.228;2023-04-24T05:42:02;10.40;99.90
49579;DHT22;35483;50.828;3.228;2023-04-24T05:44:29;10.50;99.90
49579;DHT22;35483;50.828;3.228;2023-04-24T05:46:55;10.60;99.90
49579;DHT22;35483;50.828;3.228;2023-04-24T05:49:22;10.60;99.90
49579;DHT22;35483;50.828;3.228;2023-04-24T05:51:48;10.70;99.90
49579;DHT22;35483;50.828;3.228;2023-04-24T05:54:14;10.70;99.90
49579;DHT22;35483;50.828;3.228;2023-04-24T05:56:40;10.80;99.90
49579;DHT22;35483;50.828;3.228;2023-04-24T05:59:06;10.80;99.90
49579;DHT22;35483;50.828;3.228;2023-04-24T06:01:33;10.80;99.90
49579;DHT22;35483;50.828;3.228;2023-04-24T06:03:59;10.80;99.90
49579;DHT22;35483;50.828;3.228;2023-04-24T06:06:25;10.90;99.90
49579;DHT22;35483;50.828;3.228;2023-04-24T06:08:51;10.90;99.90
49579;DHT22;35483;50.828;3.228;2023-04-24T06:11:17;10.90;99.90
49579;DHT22;35483;50.828;3.228;2023-04-24T06:13:43;10.90;99.90
49579;DHT22;35483;50.828;3.228;2023-04-24T06:16:09;11.00;99.90
49579;DHT22;35483;50.828;3.228;2023-04-24T06:18:35;11.00;99.90
49579;DHT22;35483;50.828;3.228;2023-04-24T06:21:00;10.90;99.90
49579;DHT22;35483;50.828;3.228;2023-04-24T06:23:26;10.90;99.90
49579;DHT22;35483;50.828;3.228;2023-04-24T06:25:52;10.90;99.90
49579;DHT22;35483;50.828;3.228;2023-04-24T06:28:18;10.90;99.90
49579;DHT22;35483;50.828;3.228;2023-04-24T06:30:43;10.80;99.90
49579;DHT22;35483;50.828;3.228;2023-04-24T06:33:09;10.90;99.90
49579;DHT22;35483;50.828;3.228;2023-04-24T06:35:36;11.10;99.90
49579;DHT22;35483;50.828;3.228;2023-04-24T06:38:03;11.20;99.90
49579;DHT22;35483;50.828;3.228;2023-04-24T06:40:29;11.40;99.90
49579;DHT22;35483;50.828;3.228;2023-04-24T06:42:55;11.50;99.90
49579;DHT22;35483;50.828;3.228;2023-04-24T06:45:21;11.60;99.90
49579;DHT22;35483;50.828;3.228;2023-04-24T06:47:47;11.60;99.90
49579;DHT22;35483;50.828;3.228;2023-04-24T06:50:13;11.60;99.90
49579;DHT22;35483;50.828;3.228;2023-04-24T06:52:38;11.60;99.90
49579;DHT22;35483;50.828;3.228;2023-04-24T06:55:05;11.50;99.90
49579;DHT22;35483;50.828;3.228;2023-04-24T06:57:31;11.50;99.90
49579;DHT22;35483;50.828;3.228;2023-04-24T06:59:57;11.50;99.90
49579;DHT22;35483;50.828;3.228;2023-04-24T07:02:23;11.60;99.90
49579;DHT22;35483;50.828;3.228;2023-04-24T07:04:48;11.60;99.90
49579;DHT22;35483;50.828;3.228;2023-04-24T07:07:14;11.60;99.90
49579;DHT22;35483;50.828;3.228;2023-04-24T07:09:41;11.60;99.90
49579;DHT22;35483;50.828;3.228;2023-04-24T07:12:08;11.50;99.90
49579;DHT22;35483;50.828;3.228;2023-04-24T07:14:36;11.50;99.90
49579;DHT22;35483;50.828;3.228;2023-04-24T07:17:05;11.50;99.90
49579;DHT22;35483;50.828;3.228;2023-04-24T07:19:33;11.50;99.90
49579;DHT22;35483;50.828;3.228;2023-04-24T07:21:59;11.60;99.90
49579;DHT22;35483;50.828;3.228;2023-04-24T07:24:25;11.70;99.90
49579;DHT22;35483;50.828;3.228;2023-04-24T07:26:52;11.90;99.90
49579;DHT22;35483;50.828;3.228;2023-04-24T07:29:18;12.00;99.90
49579;DHT22;35483;50.828;3.228;2023-04-24T07:31:44;12.20;99.90
49579;DHT22;35483;50.828;3.228;2023-04-24T07:34:10;12.20;99.90
49579;DHT22;35483;50.828;3.228;2023-04-24T07:36:36;12.30;99.90
49579;DHT22;35483;50.828;3.228;2023-04-24T07:39:07;12.30;99.90
49579;DHT22;35483;50.828;3.228;2023-04-24T07:41:33;12.20;99.90
49579;DHT22;35483;50.828;3.228;2023-04-24T07:43:59;12.20;99.90
49579;DHT22;35483;50.828;3.228;2023-04-24T07:46:25;12.30;99.90
49579;DHT22;35483;50.828;3.228;2023-04-24T07:48:51;12.30;99.90
49579;DHT22;35483;50.828;3.228;2023-04-24T07:51:17;12.30;99.90
49579;DHT22;35483;50.828;3.228;2023-04-24T07:53:43;12.30;99.80
49579;DHT22;35483;50.828;3.228;2023-04-24T07:56:09;12.40;99.70
49579;DHT22;35483;50.828;3.228;2023-04-24T07:58:35;12.40;99.80
49579;DHT22;35483;50.828;3.228;2023-04-24T08:01:01;12.50;99.70
49579;DHT22;35483;50.828;3.228;2023-04-24T08:03:26;12.60;99.70
49579;DHT22;35483;50.828;3.228;2023-04-24T08:05:52;12.60;99.60
49579;DHT22;35483;50.828;3.228;2023-04-24T08:08:21;12.60;99.30
49579;DHT22;35483;50.828;3.228;2023-04-24T08:10:47;12.40;99.50
49579;DHT22;35483;50.828;3.228;2023-04-24T08:13:13;12.30;99.60
49579;DHT22;35483;50.828;3.228;2023-04-24T08:15:38;12.30;99.60
49579;DHT22;35483;50.828;3.228;2023-04-24T08:18:04;12.20;99.50
49579;DHT22;35483;50.828;3.228;2023-04-24T08:20:30;12.20;99.30
49579;DHT22;35483;50.828;3.228;2023-04-24T08:22:57;12.10;99.10
49579;DHT22;35483;50.828;3.228;2023-04-24T08:25:23;12.00;99.10
49579;DHT22;35483;50.828;3.228;2023-04-24T08:27:50;11.90;99.20
49579;DHT22;35483;50.828;3.228;2023-04-24T08:30:17;12.00;99.30
49579;DHT22;35483;50.828;3.228;2023-04-24T08:32:43;12.00;99.60
49579;DHT22;35483;50.828;3.228;2023-04-24T08:35:08;12.10;99.30
49579;DHT22;35483;50.828;3.228;2023-04-24T08:37:35;12.10;99.20
49579;DHT22;35483;50.828;3.228;2023-04-24T08:40:14;12.10;99.30
49579;DHT22;35483;50.828;3.228;2023-04-24T08:42:44;12.10;99.20
49579;DHT22;35483;50.828;3.228;2023-04-24T08:45:11;12.10;99.20
49579;DHT22;35483;50.828;3.228;2023-04-24T08:47:41;12.10;99.20
49579;DHT22;35483;50.828;3.228;2023-04-24T08:50:08;12.10;99.10
49579;DHT22;35483;50.828;3.228;2023-04-24T08:52:34;12.10;99.20
49579;DHT22;35483;50.828;3.228;2023-04-24T08:55:00;12.20;99.10
49579;DHT22;35483;50.828;3.228;2023-04-24T08:57:27;12.30;99.10
49579;DHT22;35483;50.828;3.228;2023-04-24T08:59:53;12.40;99.00
49579;DHT22;35483;50.828;3.228;2023-04-24T09:02:21;12.40;99.10
49579;DHT22;35483;50.828;3.228;2023-04-24T09:04:47;12.60;99.00
49579;DHT22;35483;50.828;3.228;2023-04-24T09:07:14;12.60;99.00
49579;DHT22;35483;50.828;3.228;2023-04-24T09:09:42;12.70;98.80
49579;DHT22;35483;50.828;3.228;2023-04-24T09:12:08;12.80;98.80
49579;DHT22;35483;50.828;3.228;2023-04-24T09:14:35;12.90;98.70
49579;DHT22;35483;50.828;3.228;2023-04-24T09:17:03;13.10;98.60
49579;DHT22;35483;50.828;3.228;2023-04-24T09:19:29;13.10;98.60
49579;DHT22;35483;50.828;3.228;2023-04-24T09:21:56;13.10;98.50
49579;DHT22;35483;50.828;3.228;2023-04-24T09:24:22;13.10;98.50
49579;DHT22;35483;50.828;3.228;2023-04-24T09:26:49;13.00;98.60
49579;DHT22;35483;50.828;3.228;2023-04-24T09:29:22;13.00;98.70
49579;DHT22;35483;50.828;3.228;2023-04-24T09:31:48;12.90;98.70
49579;DHT22;35483;50.828;3.228;2023-04-24T09:34:14;13.00;98.70
49579;DHT22;35483;50.828;3.228;2023-04-24T09:36:42;12.90;98.50
49579;DHT22;35483;50.828;3.228;2023-04-24T09:39:12;12.90;98.60
49579;DHT22;35483;50.828;3.228;2023-04-24T09:41:53;13.00;98.60
49579;DHT22;35483;50.828;3.228;2023-04-24T09:44:24;13.20;98.20
49579;DHT22;35483;50.828;3.228;2023-04-24T09:46:55;13.30;98.20
49579;DHT22;35483;50.828;3.228;2023-04-24T09:49:27;13.30;98.20
49579;DHT22;35483;50.828;3.228;2023-04-24T09:52:06;13.40;98.10
49579;DHT22;35483;50.828;3.228;2023-04-24T09:54:32;13.40;98.10
49579;DHT22;35483;50.828;3.228;2023-04-24T09:56:58;13.30;98.30
49579;DHT22;35483;50.828;3.228;2023-04-24T09:59:25;13.30;98.30
49579;DHT22;35483;50.828;3.228;2023-04-24T10:01:51;13.20;98.40
49579;DHT22;35483;50.828;3.228;2023-04-24T10:04:22;13.30;98.40
49579;DHT22;35483;50.828;3.228;2023-04-24T10:06:51;13.50;98.20
49579;DHT22;35483;50.828;3.228;2023-04-24T10:09:25;13.60;98.10
49579;DHT22;35483;50.828;3.228;2023-04-24T10:11:53;13.80;97.90
49579;DHT22;35483;50.828;3.228;2023-04-24T10:14:22;13.90;97.70
49579;DHT22;35483;50.828;3.228;2023-04-24T10:16:50;14.00;97.60
49579;DHT22;35483;50.828;3.228;2023-04-24T10:19:17;14.00;97.70
49579;DHT22;35483;50.828;3.228;2023-04-24T10:21:46;14.10;97.70
49579;DHT22;35483;50.828;3.228;2023-04-24T10:24:17;14.00;97.70
49579;DHT22;35483;50.828;3.228;2023-04-24T10:26:44;13.90;97.70
49579;DHT22;35483;50.828;3.228;2023-04-24T10:29:12;13.90;97.80
49579;DHT22;35483;50.828;3.228;2023-04-24T10:31:39;13.90;97.90
49579;DHT22;35483;50.828;3.228;2023-04-24T10:34:05;14.00;97.80
49579;DHT22;35483;50.828;3.228;2023-04-24T10:36:34;14.00;97.60
49579;DHT22;35483;50.828;3.228;2023-04-24T10:39:02;14.00;97.60
49579;DHT22;35483;50.828;3.228;2023-04-24T10:41:30;14.00;97.50
49579;DHT22;35483;50.828;3.228;2023-04-24T10:44:11;14.00;97.60
49579;DHT22;35483;50.828;3.228;2023-04-24T10:46:38;14.10;97.60
49579;DHT22;35483;50.828;3.228;2023-04-24T10:49:05;14.10;97.60
49579;DHT22;35483;50.828;3.228;2023-04-24T10:52:03;14.10;97.60
49579;DHT22;35483;50.828;3.228;2023-04-24T11:00:09;14.00;97.50
49579;DHT22;35483;50.828;3.228;2023-04-24T11:02:37;14.10;97.50
49579;DHT22;35483;50.828;3.228;2023-04-24T11:05:04;14.20;97.50
49579;DHT22;35483;50.828;3.228;2023-04-24T11:07:42;14.20;97.50
49579;DHT22;35483;50.828;3.228;2023-04-24T11:10:28;14.30;97.40
49579;DHT22;35483;50.828;3.228;2023-04-24T11:12:54;14.50;97.30
49579;DHT22;35483;50.828;3.228;2023-04-24T11:15:19;14.50;97.30
49579;DHT22;35483;50.828;3.228;2023-04-24T11:17:45;14.60;97.40
49579;DHT22;35483;50.828;3.228;2023-04-24T11:20:16;14.50;97.20
49579;DHT22;35483;50.828;3.228;2023-04-24T11:22:42;14.50;97.30
49579;DHT22;35483;50.828;3.228;2023-04-24T11:25:09;14.40;97.30
49579;DHT22;35483;50.828;3.228;2023-04-24T11:27:43;14.50;97.20
49579;DHT22;35483;50.828;3.228;2023-04-24T11:30:10;14.50;97.10
49579;DHT22;35483;50.828;3.228;2023-04-24T11:32:39;14.40;96.80
49579;DHT22;35483;50.828;3.228;2023-04-24T11:35:19;14.30;97.20
49579;DHT22;35483;50.828;3.228;2023-04-24T11:37:48;14.20;97.00
49579;DHT22;35483;50.828;3.228;2023-04-24T11:40:15;14.10;97.00
49579;DHT22;35483;50.828;3.228;2023-04-24T11:42:46;14.10;97.10
49579;DHT22;35483;50.828;3.228;2023-04-24T11:45:14;14.20;97.00
49579;DHT22;35483;50.828;3.228;2023-04-24T11:47:41;14.10;96.70
49579;DHT22;35483;50.828;3.228;2023-04-24T11:50:10;14.20;97.00
49579;DHT22;35483;50.828;3.228;2023-04-24T11:52:54;14.30;96.90
49579;DHT22;35483;50.828;3.228;2023-04-24T11:57:48;14.60;96.70
49579;DHT22;35483;50.828;3.228;2023-04-24T12:02:46;14.60;95.60
49579;DHT22;35483;50.828;3.228;2023-04-24T12:05:26;14.60;96.30
49579;DHT22;35483;50.828;3.228;2023-04-24T12:07:52;14.40;96.60
49579;DHT22;35483;50.828;3.228;2023-04-24T12:10:29;14.40;96.70
49579;DHT22;35483;50.828;3.228;2023-04-24T12:12:56;14.50;96.60
49579;DHT22;35483;50.828;3.228;2023-04-24T12:15:23;14.50;96.60
49579;DHT22;35483;50.828;3.228;2023-04-24T12:17:51;14.50;96.60
49579;DHT22;35483;50.828;3.228;2023-04-24T12:20:17;14.50;96.50
49579;DHT22;35483;50.828;3.228;2023-04-24T12:22:48;14.50;96.80
49579;DHT22;35483;50.828;3.228;2023-04-24T12:25:16;14.50;94.80
49579;DHT22;35483;50.828;3.228;2023-04-24T12:27:43;14.50;96.60
49579;DHT22;35483;50.828;3.228;2023-04-24T12:30:14;14.50;96.10
49579;DHT22;35483;50.828;3.228;2023-04-24T12:32:46;14.40;96.20
49579;DHT22;35483;50.828;3.228;2023-04-24T12:35:13;14.40;96.00
49579;DHT22;35483;50.828;3.228;2023-04-24T12:37:42;14.40;96.00
49579;DHT22;35483;50.828;3.228;2023-04-24T12:40:12;14.50;95.60
49579;DHT22;35483;50.828;3.228;2023-04-24T12:42:49;14.80;96.40
49579;DHT22;35483;50.828;3.228;2023-04-24T12:45:17;14.90;95.30
49579;DHT22;35483;50.828;3.228;2023-04-24T12:47:44;15.10;96.10
49579;DHT22;35483;50.828;3.228;2023-04-24T12:50:14;15.40;96.00
49579;DHT22;35483;50.828;3.228;2023-04-24T12:52:41;15.60;95.80
49579;DHT22;35483;50.828;3.228;2023-04-24T12:55:07;15.70;95.60
49579;DHT22;35483;50.828;3.228;2023-04-24T12:57:35;15.60;95.70
49579;DHT22;35483;50.828;3.228;2023-04-24T13:00:02;15.40;95.50
49579;DHT22;35483;50.828;3.228;2023-04-24T13:02:29;15.50;95.60
49579;DHT22;35483;50.828;3.228;2023-04-24T13:04:57;15.20;94.30
49579;DHT22;35483;50.828;3.228;2023-04-24T13:07:22;15.00;95.40
49579;DHT22;35483;50.828;3.228;2023-04-24T13:09:49;14.90;95.50
49579;DHT22;35483;50.828;3.228;2023-04-24T13:12:15;14.90;95.80
49579;DHT22;35483;50.828;3.228;2023-04-24T13:14:41;14.90;96.00
49579;DHT22;35483;50.828;3.228;2023-04-24T13:17:07;15.00;95.80
49579;DHT22;35483;50.828;3.228;2023-04-24T13:19:37;15.10;95.50
49579;DHT22;35483;50.828;3.228;2023-04-24T13:22:03;15.00;95.30
49579;DHT22;35483;50.828;3.228;2023-04-24T13:24:29;14.80;94.90
49579;DHT22;35483;50.828;3.228;2023-04-24T13:26:56;14.80;95.30
49579;DHT22;35483;50.828;3.228;2023-04-24T13:29:23;14.90;95.70
49579;DHT22;35483;50.828;3.228;2023-04-24T13:31:50;15.10;95.50
49579;DHT22;35483;50.828;3.228;2023-04-24T13:34:17;15.10;94.50
49579;DHT22;35483;50.828;3.228;2023-04-24T13:36:43;15.20;95.20
49579;DHT22;35483;50.828;3.228;2023-04-24T13:39:09;15.30;95.10
49579;DHT22;35483;50.828;3.228;2023-04-24T13:41:36;15.30;95.10
49579;DHT22;35483;50.828;3.228;2023-04-24T13:44:02;15.30;95.20
49579;DHT22;35483;50.828;3.228;2023-04-24T13:46:28;15.40;94.90
49579;DHT22;35483;50.828;3.228;2023-04-24T13:48:54;15.30;94.90
49579;DHT22;35483;50.828;3.228;2023-04-24T13:51:20;15.20;95.10
49579;DHT22;35483;50.828;3.228;2023-04-24T13:53:46;15.30;94.90
49579;DHT22;35483;50.828;3.228;2023-04-24T13:56:12;15.20;95.00
49579;DHT22;35483;50.828;3.228;2023-04-24T13:58:39;15.30;95.00
49579;DHT22;35483;50.828;3.228;2023-04-24T14:01:05;15.20;94.70
49579;DHT22;35483;50.828;3.228;2023-04-24T14:03:32;15.10;94.80
49579;DHT22;35483;50.828;3.228;2023-04-24T14:05:58;15.00;94.90
49579;DHT22;35483;50.828;3.228;2023-04-24T14:08:24;15.10;95.00
49579;DHT22;35483;50.828;3.228;2023-04-24T14:10:50;15.10;95.00
49579;DHT22;35483;50.828;3.228;2023-04-24T14:13:16;15.20;94.80
49579;DHT22;35483;50.828;3.228;2023-04-24T14:15:42;15.10;94.80
49579;DHT22;35483;50.828;3.228;2023-04-24T14:18:08;15.00;94.80
49579;DHT22;35483;50.828;3.228;2023-04-24T14:20:34;14.90;94.80
49579;DHT22;35483;50.828;3.228;2023-04-24T14:23:00;14.80;92.50
49579;DHT22;35483;50.828;3.228;2023-04-24T14:25:26;14.50;94.60
49579;DHT22;35483;50.828;3.228;2023-04-24T14:27:52;14.30;94.80
49579;DHT22;35483;50.828;3.228;2023-04-24T14:30:18;14.40;95.00
49579;DHT22;35483;50.828;3.228;2023-04-24T14:32:44;14.40;94.90
49579;DHT22;35483;50.828;3.228;2023-04-24T14:35:10;14.40;94.70
49579;DHT22;35483;50.828;3.228;2023-04-24T14:37:36;14.20;94.20
49579;DHT22;35483;50.828;3.228;2023-04-24T14:40:03;14.20;94.90
49579;DHT22;35483;50.828;3.228;2023-04-24T14:42:30;14.20;95.20
49579;DHT22;35483;50.828;3.228;2023-04-24T14:44:56;14.20;95.10
49579;DHT22;35483;50.828;3.228;2023-04-24T14:47:22;14.10;94.80
49579;DHT22;35483;50.828;3.228;2023-04-24T14:49:48;14.00;94.50
49579;DHT22;35483;50.828;3.228;2023-04-24T14:52:14;13.90;92.30
49579;DHT22;35483;50.828;3.228;2023-04-24T14:54:40;13.80;95.00
49579;DHT22;35483;50.828;3.228;2023-04-24T14:57:05;13.90;94.90
49579;DHT22;35483;50.828;3.228;2023-04-24T14:59:31;13.80;95.00
49579;DHT22;35483;50.828;3.228;2023-04-24T15:01:57;13.70;94.50
49579;DHT22;35483;50.828;3.228;2023-04-24T15:04:26;13.70;94.60
49579;DHT22;35483;50.828;3.228;2023-04-24T15:06:53;13.60;94.40
49579;DHT22;35483;50.828;3.228;2023-04-24T15:09:23;13.60;94.70
49579;DHT22;35483;50.828;3.228;2023-04-24T15:11:50;13.50;93.40
49579;DHT22;35483;50.828;3.228;2023-04-24T15:14:17;13.50;94.80
49579;DHT22;35483;50.828;3.228;2023-04-24T15:16:43;13.70;94.40
49579;DHT22;35483;50.828;3.228;2023-04-24T15:19:10;13.80;94.50
49579;DHT22;35483;50.828;3.228;2023-04-24T15:21:37;14.00;94.60
49579;DHT22;35483;50.828;3.228;2023-04-24T15:24:04;14.30;90.90
49579;DHT22;35483;50.828;3.228;2023-04-24T15:26:30;14.30;94.10
49579;DHT22;35483;50.828;3.228;2023-04-24T15:28:56;14.50;94.70
49579;DHT22;35483;50.828;3.228;2023-04-24T15:31:21;14.60;94.20
49579;DHT22;35483;50.828;3.228;2023-04-24T15:33:51;14.40;94.30
49579;DHT22;35483;50.828;3.228;2023-04-24T15:36:17;14.50;94.10
49579;DHT22;35483;50.828;3.228;2023-04-24T15:38:43;14.40;94.20